sensor_id;sensor_type;location;lat;lon;timestamp;P1;durP1;ratioP1;P2;durP2;ratioP2
52730;SDS011;38624;53.242;6.974;2024-02-14T16:22:23;28.65;;;4.28;;
52730;SDS011;38624;53.242;6.974;2024-02-14T16:24:49;60.40;;;4.78;;
52730;SDS011;38624;53.242;6.974;2024-02-14T16:27:17;35.75;;;3.10;;
52730;SDS011;38624;53.242;6.974;2024-02-14T16:29:43;24.30;;;3.15;;
52730;SDS011;38624;53.242;6.974;2024-02-14T16:32:08;18.13;;;2.70;;
52730;SDS011;38624;53.242;6.974;2024-02-14T16:34:34;28.73;;;3.30;;
52730;SDS011;38624;53.242;6.974;2024-02-14T16:37:01;29.13;;;4.28;;
52730;SDS011;38624;53.242;6.974;2024-02-14T16:39:27;24.42;;;4.15;;
52730;SDS011;38624;53.242;6.974;2024-02-14T16:41:53;14.20;;;2.30;;
52730;SDS011;38624;53.242;6.974;2024-02-14T16:44:19;25.13;;;2.55;;
52730;SDS011;38624;53.242;6.974;2024-02-14T16:46:46;4.10;;;3.10;;
52730;SDS011;38624;53.242;6.974;2024-02-14T16:51:38;4.57;;;3.80;;
52730;SDS011;38624;53.242;6.974;2024-02-14T16:54:04;22.17;;;2.97;;
52730;SDS011;38624;53.242;6.974;2024-02-14T16:56:30;23.17;;;2.95;;
52730;SDS011;38624;53.242;6.974;2024-02-14T16:58:58;20.08;;;3.00;;
52730;SDS011;38624;53.242;6.974;2024-02-14T17:01:24;14.52;;;2.10;;
52730;SDS011;38624;53.242;6.974;2024-02-14T17:10:09;17.27;;;1.77;;
52730;SDS011;38624;53.242;6.974;2024-02-14T17:14:06;17.00;;;1.80;;
52730;SDS011;38624;53.242;6.974;2024-02-14T17:16:35;20.70;;;2.22;;
52730;SDS011;38624;53.242;6.974;2024-02-14T17:19:01;16.67;;;1.90;;
52730;SDS011;38624;53.242;6.974;2024-02-14T17:21:27;16.92;;;1.80;;
52730;SDS011;38624;53.242;6.974;2024-02-14T17:23:53;19.13;;;1.90;;
52730;SDS011;38624;53.242;6.974;2024-02-14T17:26:19;14.98;;;1.50;;
52730;SDS011;38624;53.242;6.974;2024-02-14T17:28:46;15.63;;;1.50;;
52730;SDS011;38624;53.242;6.974;2024-02-14T17:31:12;11.07;;;1.88;;
52730;SDS011;38624;53.242;6.974;2024-02-14T17:36:05;10.38;;;1.40;;
52730;SDS011;38624;53.242;6.974;2024-02-14T17:38:31;11.30;;;1.45;;
52730;SDS011;38624;53.242;6.974;2024-02-14T17:40:57;8.45;;;1.52;;
52730;SDS011;38624;53.242;6.974;2024-02-14T17:43:24;9.93;;;1.70;;
52730;SDS011;38624;53.242;6.974;2024-02-14T17:45:50;10.07;;;1.38;;
52730;SDS011;38624;53.242;6.974;2024-02-14T17:48:16;2.80;;;1.10;;
52730;SDS011;38624;53.242;6.974;2024-02-14T17:50:42;6.47;;;1.38;;
52730;SDS011;38624;53.242;6.974;2024-02-14T17:53:10;6.72;;;1.38;;
52730;SDS011;38624;53.242;6.974;2024-02-14T17:55:36;5.03;;;1.20;;
52730;SDS011;38624;53.242;6.974;2024-02-14T17:58:02;3.67;;;1.00;;
52730;SDS011;38624;53.242;6.974;2024-02-14T18:00:29;7.18;;;1.35;;
52730;SDS011;38624;53.242;6.974;2024-02-14T18:02:55;5.18;;;1.40;;
52730;SDS011;38624;53.242;6.974;2024-02-14T18:05:21;2.00;;;0.90;;
52730;SDS011;38624;53.242;6.974;2024-02-14T18:07:47;4.40;;;0.95;;
52730;SDS011;38624;53.242;6.974;2024-02-14T18:10:13;4.13;;;1.10;;
52730;SDS011;38624;53.242;6.974;2024-02-14T18:12:39;2.85;;;1.13;;
52730;SDS011;38624;53.242;6.974;2024-02-14T18:15:05;4.93;;;0.90;;
52730;SDS011;38624;53.242;6.974;2024-02-14T18:17:35;2.15;;;0.93;;
52730;SDS011;38624;53.242;6.974;2024-02-14T18:20:01;5.85;;;1.10;;
52730;SDS011;38624;53.242;6.974;2024-02-14T18:22:27;4.97;;;1.20;;
52730;SDS011;38624;53.242;6.974;2024-02-14T18:24:54;2.60;;;1.25;;
52730;SDS011;38624;53.242;6.974;2024-02-14T18:29:50;6.53;;;1.00;;
52730;SDS011;38624;53.242;6.974;2024-02-14T18:32:17;2.35;;;0.90;;
52730;SDS011;38624;53.242;6.974;2024-02-14T18:37:09;3.35;;;0.95;;
52730;SDS011;38624;53.242;6.974;2024-02-14T18:39:36;3.70;;;0.80;;
52730;SDS011;38624;53.242;6.974;2024-02-14T18:42:06;2.03;;;0.80;;
52730;SDS011;38624;53.242;6.974;2024-02-14T18:44:32;2.17;;;0.95;;
52730;SDS011;38624;53.242;6.974;2024-02-14T18:46:58;1.95;;;1.00;;
52730;SDS011;38624;53.242;6.974;2024-02-14T18:49:25;1.75;;;0.93;;
52730;SDS011;38624;53.242;6.974;2024-02-14T18:51:51;3.15;;;1.13;;
52730;SDS011;38624;53.242;6.974;2024-02-14T18:54:17;4.35;;;1.10;;
52730;SDS011;38624;53.242;6.974;2024-02-14T18:56:43;3.25;;;1.05;;
52730;SDS011;38624;53.242;6.974;2024-02-14T18:59:09;3.35;;;0.88;;
52730;SDS011;38624;53.242;6.974;2024-02-14T19:01:35;2.33;;;0.90;;
52730;SDS011;38624;53.242;6.974;2024-02-14T19:04:01;2.35;;;1.00;;
52730;SDS011;38624;53.242;6.974;2024-02-14T19:06:29;2.92;;;0.88;;
52730;SDS011;38624;53.242;6.974;2024-02-14T19:08:59;4.03;;;1.10;;
52730;SDS011;38624;53.242;6.974;2024-02-14T19:11:25;1.65;;;0.90;;
52730;SDS011;38624;53.242;6.974;2024-02-14T19:13:52;0.88;;;0.80;;
52730;SDS011;38624;53.242;6.974;2024-02-14T19:16:18;2.60;;;1.10;;
52730;SDS011;38624;53.242;6.974;2024-02-14T19:18:44;1.80;;;0.80;;
52730;SDS011;38624;53.242;6.974;2024-02-14T19:21:11;2.30;;;0.90;;
52730;SDS011;38624;53.242;6.974;2024-02-14T19:23:37;1.33;;;0.80;;
52730;SDS011;38624;53.242;6.974;2024-02-14T19:26:07;1.88;;;0.90;;
52730;SDS011;38624;53.242;6.974;2024-02-14T19:28:33;2.03;;;0.77;;
52730;SDS011;38624;53.242;6.974;2024-02-14T19:30:59;1.80;;;0.98;;
52730;SDS011;38624;53.242;6.974;2024-02-14T19:33:25;2.00;;;0.90;;
52730;SDS011;38624;53.242;6.974;2024-02-14T19:35:51;2.97;;;0.90;;
52730;SDS011;38624;53.242;6.974;2024-02-14T19:38:17;2.97;;;0.80;;
52730;SDS011;38624;53.242;6.974;2024-02-14T19:40:44;1.00;;;0.80;;
52730;SDS011;38624;53.242;6.974;2024-02-14T19:43:10;2.28;;;0.70;;
52730;SDS011;38624;53.242;6.974;2024-02-14T19:45:36;2.25;;;0.75;;
52730;SDS011;38624;53.242;6.974;2024-02-14T19:48:03;1.65;;;0.85;;
52730;SDS011;38624;53.242;6.974;2024-02-14T19:50:29;1.65;;;0.90;;
52730;SDS011;38624;53.242;6.974;2024-02-14T19:52:55;1.17;;;0.88;;
52730;SDS011;38624;53.242;6.974;2024-02-14T19:55:22;2.25;;;0.90;;
52730;SDS011;38624;53.242;6.974;2024-02-14T19:57:48;2.00;;;0.70;;
52730;SDS011;38624;53.242;6.974;2024-02-14T20:00:15;1.60;;;0.80;;
52730;SDS011;38624;53.242;6.974;2024-02-14T20:02:42;1.55;;;0.82;;
52730;SDS011;38624;53.242;6.974;2024-02-14T20:05:08;1.38;;;0.80;;
52730;SDS011;38624;53.242;6.974;2024-02-14T20:07:34;1.42;;;0.80;;
52730;SDS011;38624;53.242;6.974;2024-02-14T20:10:01;0.90;;;0.65;;
52730;SDS011;38624;53.242;6.974;2024-02-14T20:12:29;1.35;;;0.80;;
52730;SDS011;38624;53.242;6.974;2024-02-14T20:14:58;3.33;;;0.88;;
52730;SDS011;38624;53.242;6.974;2024-02-14T20:17:25;2.05;;;0.82;;
52730;SDS011;38624;53.242;6.974;2024-02-14T20:19:51;2.47;;;0.80;;
52730;SDS011;38624;53.242;6.974;2024-02-14T20:22:17;1.05;;;0.80;;
52730;SDS011;38624;53.242;6.974;2024-02-14T20:24:44;1.17;;;0.80;;
52730;SDS011;38624;53.242;6.974;2024-02-14T20:27:11;2.80;;;0.98;;
52730;SDS011;38624;53.242;6.974;2024-02-14T20:29:37;1.83;;;0.75;;
52730;SDS011;38624;53.242;6.974;2024-02-14T20:32:03;1.85;;;0.95;;
52730;SDS011;38624;53.242;6.974;2024-02-14T20:34:29;0.82;;;0.73;;
52730;SDS011;38624;53.242;6.974;2024-02-14T20:36:55;0.90;;;0.80;;
52730;SDS011;38624;53.242;6.974;2024-02-14T20:39:21;2.63;;;0.90;;
52730;SDS011;38624;53.242;6.974;2024-02-14T20:41:48;1.35;;;0.80;;
52730;SDS011;38624;53.242;6.974;2024-02-14T20:46:42;1.23;;;0.75;;
52730;SDS011;38624;53.242;6.974;2024-02-14T20:49:14;0.73;;;0.73;;
52730;SDS011;38624;53.242;6.974;2024-02-14T20:51:40;1.80;;;0.80;;
52730;SDS011;38624;53.242;6.974;2024-02-14T20:54:06;0.95;;;0.60;;
52730;SDS011;38624;53.242;6.974;2024-02-14T20:56:32;1.88;;;0.73;;
52730;SDS011;38624;53.242;6.974;2024-02-14T20:58:59;0.93;;;0.75;;
52730;SDS011;38624;53.242;6.974;2024-02-14T21:01:28;1.45;;;0.80;;
52730;SDS011;38624;53.242;6.974;2024-02-14T21:03:54;0.80;;;0.70;;
52730;SDS011;38624;53.242;6.974;2024-02-14T21:06:23;0.88;;;0.80;;
52730;SDS011;38624;53.242;6.974;2024-02-14T21:08:49;1.80;;;0.70;;
52730;SDS011;38624;53.242;6.974;2024-02-14T21:11:16;1.85;;;0.80;;
52730;SDS011;38624;53.242;6.974;2024-02-14T21:13:42;1.08;;;0.77;;
52730;SDS011;38624;53.242;6.974;2024-02-14T21:16:08;0.95;;;0.68;;
52730;SDS011;38624;53.242;6.974;2024-02-14T21:18:34;0.80;;;0.60;;
52730;SDS011;38624;53.242;6.974;2024-02-14T21:21:01;0.77;;;0.60;;
52730;SDS011;38624;53.242;6.974;2024-02-14T21:23:27;0.93;;;0.70;;
52730;SDS011;38624;53.242;6.974;2024-02-14T21:25:53;1.00;;;0.70;;
52730;SDS011;38624;53.242;6.974;2024-02-14T21:28:19;1.73;;;0.80;;
52730;SDS011;38624;53.242;6.974;2024-02-14T21:30:45;1.45;;;0.75;;
52730;SDS011;38624;53.242;6.974;2024-02-14T21:33:12;1.63;;;0.80;;
52730;SDS011;38624;53.242;6.974;2024-02-14T21:35:38;1.23;;;0.60;;
52730;SDS011;38624;53.242;6.974;2024-02-14T21:38:04;1.63;;;0.88;;
52730;SDS011;38624;53.242;6.974;2024-02-14T21:40:30;0.77;;;0.60;;
52730;SDS011;38624;53.242;6.974;2024-02-14T21:42:57;2.13;;;0.60;;
52730;SDS011;38624;53.242;6.974;2024-02-14T21:45:23;1.85;;;0.80;;
52730;SDS011;38624;53.242;6.974;2024-02-14T21:47:50;2.05;;;1.00;;
52730;SDS011;38624;53.242;6.974;2024-02-14T21:50:16;1.48;;;0.85;;
52730;SDS011;38624;53.242;6.974;2024-02-14T21:52:42;1.50;;;1.00;;
52730;SDS011;38624;53.242;6.974;2024-02-14T21:55:09;2.20;;;0.90;;
52730;SDS011;38624;53.242;6.974;2024-02-14T21:57:35;1.83;;;0.80;;
52730;SDS011;38624;53.242;6.974;2024-02-14T22:00:01;1.35;;;0.70;;
52730;SDS011;38624;53.242;6.974;2024-02-14T22:02:29;1.20;;;0.88;;
52730;SDS011;38624;53.242;6.974;2024-02-14T22:04:55;1.20;;;0.73;;
52730;SDS011;38624;53.242;6.974;2024-02-14T22:07:21;1.70;;;0.70;;
52730;SDS011;38624;53.242;6.974;2024-02-14T22:09:48;1.52;;;0.82;;
52730;SDS011;38624;53.242;6.974;2024-02-14T22:12:14;1.00;;;0.70;;
52730;SDS011;38624;53.242;6.974;2024-02-14T22:17:06;1.10;;;0.80;;
52730;SDS011;38624;53.242;6.974;2024-02-14T22:19:37;1.27;;;0.90;;
52730;SDS011;38624;53.242;6.974;2024-02-14T22:22:05;1.75;;;0.80;;
52730;SDS011;38624;53.242;6.974;2024-02-14T22:24:31;1.48;;;0.93;;
52730;SDS011;38624;53.242;6.974;2024-02-14T22:26:58;2.22;;;0.80;;
52730;SDS011;38624;53.242;6.974;2024-02-14T22:29:24;0.98;;;0.70;;
52730;SDS011;38624;53.242;6.974;2024-02-14T22:31:50;1.52;;;0.80;;
52730;SDS011;38624;53.242;6.974;2024-02-14T22:34:17;1.10;;;0.70;;
52730;SDS011;38624;53.242;6.974;2024-02-14T22:36:43;1.55;;;0.80;;
52730;SDS011;38624;53.242;6.974;2024-02-14T22:39:09;1.15;;;0.70;;
52730;SDS011;38624;53.242;6.974;2024-02-14T22:41:38;1.92;;;0.90;;
52730;SDS011;38624;53.242;6.974;2024-02-14T22:44:04;0.73;;;0.70;;
52730;SDS011;38624;53.242;6.974;2024-02-14T22:46:30;1.23;;;0.63;;
52730;SDS011;38624;53.242;6.974;2024-02-14T22:48:57;1.80;;;0.70;;
52730;SDS011;38624;53.242;6.974;2024-02-14T22:53:50;1.05;;;0.70;;
52730;SDS011;38624;53.242;6.974;2024-02-14T22:58:42;1.55;;;0.90;;
52730;SDS011;38624;53.242;6.974;2024-02-14T23:01:08;0.88;;;0.70;;
52730;SDS011;38624;53.242;6.974;2024-02-14T23:03:34;0.82;;;0.68;;
52730;SDS011;38624;53.242;6.974;2024-02-14T23:06:01;1.58;;;0.70;;
52730;SDS011;38624;53.242;6.974;2024-02-14T23:08:27;0.80;;;0.70;;
52730;SDS011;38624;53.242;6.974;2024-02-14T23:10:53;1.23;;;0.70;;
52730;SDS011;38624;53.242;6.974;2024-02-14T23:13:20;0.82;;;0.80;;
52730;SDS011;38624;53.242;6.974;2024-02-14T23:15:46;1.52;;;0.77;;
52730;SDS011;38624;53.242;6.974;2024-02-14T23:18:17;1.30;;;0.85;;
52730;SDS011;38624;53.242;6.974;2024-02-14T23:20:43;1.10;;;0.80;;
52730;SDS011;38624;53.242;6.974;2024-02-14T23:23:09;1.10;;;0.73;;
52730;SDS011;38624;53.242;6.974;2024-02-14T23:25:35;1.63;;;0.80;;
52730;SDS011;38624;53.242;6.974;2024-02-14T23:28:02;2.38;;;0.70;;
52730;SDS011;38624;53.242;6.974;2024-02-14T23:30:29;1.20;;;0.70;;
52730;SDS011;38624;53.242;6.974;2024-02-14T23:32:56;1.50;;;0.90;;
52730;SDS011;38624;53.242;6.974;2024-02-14T23:35:23;1.13;;;0.68;;
52730;SDS011;38624;53.242;6.974;2024-02-14T23:37:49;1.15;;;0.75;;
52730;SDS011;38624;53.242;6.974;2024-02-14T23:40:15;1.08;;;0.75;;
52730;SDS011;38624;53.242;6.974;2024-02-14T23:42:42;1.17;;;0.80;;
52730;SDS011;38624;53.242;6.974;2024-02-14T23:45:08;2.30;;;1.10;;
52730;SDS011;38624;53.242;6.974;2024-02-14T23:47:35;0.95;;;0.75;;
52730;SDS011;38624;53.242;6.974;2024-02-14T23:50:02;1.55;;;0.77;;
52730;SDS011;38624;53.242;6.974;2024-02-14T23:54:57;1.77;;;0.90;;
52730;SDS011;38624;53.242;6.974;2024-02-14T23:57:23;1.63;;;0.93;;
52730;SDS011;38624;53.242;6.974;2024-02-14T23:59:49;1.20;;;0.80;;
